Grasslands, Zimbabwe

10:02 AM CAT on March 04, 2015 (GMT +0200)
Harare International | Change Station
CLOSE
Current Station
Airport
Location: Harare Kutsaga,
Elevation: 4856 ft
Nearby Weather Stations

Elev 4856 ft 17.92 °S, 31.13 °E | Updated 1 hour ago

Mostly Cloudy
Mostly Cloudy
64 °F
Feels Like 64 °F
N
8
Wind Variable Wind from SSE

Today
High -- | Low -- °F
--% Chance of Precip.
Yesterday
High -- | Low -- °F
Precip. -- in
5:53 AM 6:17 PM
Waxing Gibbous, 98% visible
Pressure 30.27 in
Visibility 6.2 miles
Clouds Mostly Cloudy 2500 ft
Dew Point 54 °F
Humidity 68%
Rainfall 0.00 in
Snow Depth Not available.
UV 4 out of 12
Pollen Not available.
Air Quality Not available.
Flu Activity Not available.
METAR FVHA 040700Z 16007KT 120V200 9999 BKN025 18/12 Q1025 NOSIG

More Conditions Fewer Conditions

Pressure 30.27 in
Visibility 6.2 miles
Clouds Mostly Cloudy 2500 ft
Dew Point 54 °F
Humidity 68%
Rainfall 0.00 in
Snow Depth Not available.
UV 4 out of 12
Pollen Not available.
Air Quality Not available.
Flu Activity Not available.
METAR FVHA 040700Z 16007KT 120V200 9999 BKN025 18/12 Q1025 NOSIG

More Conditions Fewer Conditions

10-Day Weather Forecast

Almanac

Astronomy

Mar. 04, 2015 Rise Set
Actual Time
Civil Twilight
Nautical Twilight
Astronomical Twilight
Moon
Length of Visible Light
Length of Day
Tomorrow will be .
, % of the Moon is Illuminated

Today's Extremes

Country Highs Country Lows

Community

WunderPhotos

Upload Photos

1,802,416 photos uploaded!

WunderBlogs® & News

Nearby

Air Quality

  Air Quality AQ Index Pollutant
Not available.

Snow Depth

Station Depth Elevation

Earthquake Activity

City Distance Mag. Time & Date
Minimum magnitude displayed is 2.5.

Coastal Water Temperatures

Place Temperature

Nearby Weather Stations